St. Joseph, MO

2:20 AM CDT on August 25, 2016 (GMT -0500)
| | Change Station

Elev -9999 ft 0.00 °N, 0.00 °E | Updated

Cloudy
Cloudy
67 °F
Feels Like 67 °F
N
3
Wind Variable Wind from NNW
Gusts mph

Today
High -- | Low -- °F
--% Chance of Precip.
Yesterday
High -- | Low -- °F
Precip. -- in
Pressure 30.01 in
Visibility 7.0 miles
Clouds Overcast 1000 ft
Dew Point 66 °F
Humidity 97%
Rainfall --
Snow Depth Not available.
6:41 AM 8:00 PM
Waning Gibbous, 48% visible
METAR KSTJ 250653Z AUTO 36005KT 7SM OVC010 22/21 A3003 RMK AO2 SLP161 T02170206 $
Pressure 30.01 in
Visibility 7.0 miles
Clouds Overcast 1000 ft
Dew Point 66 °F
Humidity 97%
Rainfall --
Snow Depth Not available.
6:41 AM 8:00 PM
Waning Gibbous, 48% visible
METAR KSTJ 250653Z AUTO 36005KT 7SM OVC010 22/21 A3003 RMK AO2 SLP161 T02170206 $

10-Day Weather Forecast

Almanac

Astronomy

Aug. 25, 2016 Rise Set
Actual Time
Civil Twilight
Nautical Twilight
Astronomical Twilight
Moon
Length of Visible Light
Length of Day
Tomorrow will be .
, % of the Moon is Illuminated

Today's Extremes

State Highs State Lows

Community

WunderPhotos

Upload Photos

1,934,814 photos uploaded!

WunderBlog® & News

Nearby

Air Quality

  Air Quality AQ Index Pollutant
Not available.

Snow Depth

Station Depth Elevation

Earthquake Activity

City Distance Mag. Time & Date
Minimum magnitude displayed is 2.5.

Coastal Water Temperatures

Place Temperature

Stations

Nearby Weather Stations

Station Location Temp. Windchill Dew Point Humidity Wind Precip. Elev Updated Type
                   

Watches & Warnings

There are currently no watches in effect.